sensor_id;sensor_type;location;lat;lon;timestamp;P1;durP1;ratioP1;P2;durP2;ratioP2
33413;SDS011;60055;41.884;12.534;2023-07-20T00:01:46;22.45;;;8.18;;
33413;SDS011;60055;41.884;12.534;2023-07-20T00:04:12;24.83;;;7.85;;
33413;SDS011;60055;41.884;12.534;2023-07-20T00:06:38;27.70;;;8.23;;
33413;SDS011;60055;41.884;12.534;2023-07-20T00:09:05;25.55;;;7.88;;
33413;SDS011;60055;41.884;12.534;2023-07-20T00:11:31;25.33;;;8.25;;
33413;SDS011;60055;41.884;12.534;2023-07-20T00:13:56;26.52;;;8.68;;
33413;SDS011;60055;41.884;12.534;2023-07-20T00:16:21;29.85;;;9.00;;
33413;SDS011;60055;41.884;12.534;2023-07-20T00:18:47;26.25;;;8.57;;
33413;SDS011;60055;41.884;12.534;2023-07-20T00:21:12;22.15;;;8.43;;
33413;SDS011;60055;41.884;12.534;2023-07-20T00:23:38;24.08;;;8.27;;
33413;SDS011;60055;41.884;12.534;2023-07-20T00:26:03;23.73;;;8.63;;
33413;SDS011;60055;41.884;12.534;2023-07-20T00:28:28;23.83;;;8.25;;
33413;SDS011;60055;41.884;12.534;2023-07-20T00:30:54;35.95;;;8.95;;
33413;SDS011;60055;41.884;12.534;2023-07-20T00:33:19;24.73;;;8.05;;
33413;SDS011;60055;41.884;12.534;2023-07-20T00:35:45;19.67;;;7.65;;
33413;SDS011;60055;41.884;12.534;2023-07-20T00:38:10;20.52;;;7.15;;
33413;SDS011;60055;41.884;12.534;2023-07-20T00:40:39;27.20;;;8.95;;
33413;SDS011;60055;41.884;12.534;2023-07-20T00:43:06;22.10;;;8.13;;
33413;SDS011;60055;41.884;12.534;2023-07-20T00:45:36;27.30;;;7.97;;
33413;SDS011;60055;41.884;12.534;2023-07-20T00:48:02;25.73;;;7.57;;
33413;SDS011;60055;41.884;12.534;2023-07-20T00:50:29;25.25;;;7.10;;
33413;SDS011;60055;41.884;12.534;2023-07-20T00:52:56;24.05;;;7.13;;
33413;SDS011;60055;41.884;12.534;2023-07-20T00:55:22;25.65;;;7.22;;
33413;SDS011;60055;41.884;12.534;2023-07-20T00:57:51;23.92;;;7.47;;
33413;SDS011;60055;41.884;12.534;2023-07-20T01:00:18;28.50;;;7.72;;
33413;SDS011;60055;41.884;12.534;2023-07-20T01:02:44;22.10;;;7.50;;
33413;SDS011;60055;41.884;12.534;2023-07-20T01:05:10;22.80;;;7.68;;
33413;SDS011;60055;41.884;12.534;2023-07-20T01:12:43;26.40;;;7.57;;
33413;SDS011;60055;41.884;12.534;2023-07-20T01:15:13;25.27;;;7.70;;
33413;SDS011;60055;41.884;12.534;2023-07-20T01:17:38;19.20;;;7.60;;
33413;SDS011;60055;41.884;12.534;2023-07-20T01:20:05;25.77;;;7.55;;
33413;SDS011;60055;41.884;12.534;2023-07-20T01:27:58;31.08;;;8.13;;
33413;SDS011;60055;41.884;12.534;2023-07-20T01:33:11;29.98;;;7.88;;
33413;SDS011;60055;41.884;12.534;2023-07-20T01:35:41;26.23;;;7.93;;
33413;SDS011;60055;41.884;12.534;2023-07-20T01:38:08;21.27;;;7.63;;
33413;SDS011;60055;41.884;12.534;2023-07-20T01:40:36;25.00;;;8.20;;
33413;SDS011;60055;41.884;12.534;2023-07-20T01:43:03;21.17;;;7.35;;
33413;SDS011;60055;41.884;12.534;2023-07-20T01:45:28;23.33;;;7.15;;
33413;SDS011;60055;41.884;12.534;2023-07-20T01:47:54;25.65;;;7.60;;
33413;SDS011;60055;41.884;12.534;2023-07-20T01:50:19;29.33;;;7.18;;
33413;SDS011;60055;41.884;12.534;2023-07-20T01:52:45;24.15;;;7.18;;
33413;SDS011;60055;41.884;12.534;2023-07-20T01:55:10;23.13;;;7.40;;
33413;SDS011;60055;41.884;12.534;2023-07-20T01:57:35;23.83;;;7.05;;
33413;SDS011;60055;41.884;12.534;2023-07-20T02:00:01;29.33;;;8.13;;
33413;SDS011;60055;41.884;12.534;2023-07-20T02:02:27;22.38;;;6.32;;
33413;SDS011;60055;41.884;12.534;2023-07-20T02:04:55;23.85;;;7.28;;
33413;SDS011;60055;41.884;12.534;2023-07-20T02:07:20;21.02;;;7.30;;
33413;SDS011;60055;41.884;12.534;2023-07-20T02:09:46;20.92;;;6.80;;
33413;SDS011;60055;41.884;12.534;2023-07-20T02:12:11;21.63;;;6.63;;
33413;SDS011;60055;41.884;12.534;2023-07-20T02:14:37;26.98;;;7.07;;
33413;SDS011;60055;41.884;12.534;2023-07-20T02:17:02;19.00;;;6.55;;
33413;SDS011;60055;41.884;12.534;2023-07-20T02:19:29;30.15;;;7.00;;
33413;SDS011;60055;41.884;12.534;2023-07-20T02:21:55;22.55;;;6.50;;
33413;SDS011;60055;41.884;12.534;2023-07-20T02:24:20;26.33;;;6.85;;
33413;SDS011;60055;41.884;12.534;2023-07-20T02:26:45;24.75;;;7.03;;
33413;SDS011;60055;41.884;12.534;2023-07-20T02:29:11;20.58;;;6.80;;
33413;SDS011;60055;41.884;12.534;2023-07-20T02:31:39;24.70;;;7.35;;
33413;SDS011;60055;41.884;12.534;2023-07-20T02:34:05;23.15;;;6.50;;
33413;SDS011;60055;41.884;12.534;2023-07-20T02:36:31;23.52;;;6.45;;
33413;SDS011;60055;41.884;12.534;2023-07-20T02:38:59;20.02;;;6.70;;
33413;SDS011;60055;41.884;12.534;2023-07-20T02:41:27;27.55;;;6.85;;
33413;SDS011;60055;41.884;12.534;2023-07-20T02:43:52;17.73;;;5.97;;
33413;SDS011;60055;41.884;12.534;2023-07-20T02:46:17;25.13;;;6.35;;
33413;SDS011;60055;41.884;12.534;2023-07-20T02:48:43;20.00;;;6.40;;
33413;SDS011;60055;41.884;12.534;2023-07-20T02:51:08;22.85;;;6.75;;
33413;SDS011;60055;41.884;12.534;2023-07-20T02:53:34;17.08;;;6.00;;
33413;SDS011;60055;41.884;12.534;2023-07-20T02:56:00;26.08;;;7.00;;
33413;SDS011;60055;41.884;12.534;2023-07-20T02:58:25;21.38;;;6.03;;
33413;SDS011;60055;41.884;12.534;2023-07-20T03:00:50;21.95;;;6.10;;
33413;SDS011;60055;41.884;12.534;2023-07-20T03:03:16;19.17;;;6.68;;
33413;SDS011;60055;41.884;12.534;2023-07-20T03:05:41;20.58;;;6.53;;
33413;SDS011;60055;41.884;12.534;2023-07-20T03:08:07;31.45;;;6.95;;
33413;SDS011;60055;41.884;12.534;2023-07-20T03:10:33;23.88;;;6.57;;
33413;SDS011;60055;41.884;12.534;2023-07-20T03:13:03;23.40;;;6.60;;
33413;SDS011;60055;41.884;12.534;2023-07-20T03:15:28;29.10;;;6.72;;
33413;SDS011;60055;41.884;12.534;2023-07-20T03:17:54;24.35;;;6.45;;
33413;SDS011;60055;41.884;12.534;2023-07-20T03:20:19;24.73;;;6.47;;
33413;SDS011;60055;41.884;12.534;2023-07-20T03:22:45;21.98;;;6.43;;
33413;SDS011;60055;41.884;12.534;2023-07-20T03:25:11;19.63;;;6.28;;
33413;SDS011;60055;41.884;12.534;2023-07-20T03:27:36;18.77;;;5.95;;
33413;SDS011;60055;41.884;12.534;2023-07-20T03:30:02;28.27;;;7.00;;
33413;SDS011;60055;41.884;12.534;2023-07-20T03:32:27;21.70;;;6.57;;
33413;SDS011;60055;41.884;12.534;2023-07-20T03:34:53;18.95;;;5.95;;
33413;SDS011;60055;41.884;12.534;2023-07-20T03:37:18;27.40;;;6.68;;
33413;SDS011;60055;41.884;12.534;2023-07-20T03:39:44;25.00;;;6.88;;
33413;SDS011;60055;41.884;12.534;2023-07-20T03:42:09;24.00;;;6.35;;
33413;SDS011;60055;41.884;12.534;2023-07-20T03:44:34;23.40;;;6.63;;
33413;SDS011;60055;41.884;12.534;2023-07-20T03:47:00;18.45;;;5.93;;
33413;SDS011;60055;41.884;12.534;2023-07-20T03:49:25;26.88;;;6.25;;
33413;SDS011;60055;41.884;12.534;2023-07-20T03:51:51;16.80;;;6.15;;
33413;SDS011;60055;41.884;12.534;2023-07-20T03:54:16;24.50;;;6.25;;
33413;SDS011;60055;41.884;12.534;2023-07-20T03:56:42;21.80;;;6.70;;
33413;SDS011;60055;41.884;12.534;2023-07-20T03:59:07;19.23;;;6.40;;
33413;SDS011;60055;41.884;12.534;2023-07-20T04:01:32;23.15;;;6.65;;
33413;SDS011;60055;41.884;12.534;2023-07-20T04:04:04;19.90;;;6.78;;
33413;SDS011;60055;41.884;12.534;2023-07-20T04:06:31;20.98;;;6.20;;
33413;SDS011;60055;41.884;12.534;2023-07-20T04:08:57;24.75;;;6.68;;
33413;SDS011;60055;41.884;12.534;2023-07-20T04:11:22;22.83;;;6.57;;
33413;SDS011;60055;41.884;12.534;2023-07-20T04:13:47;22.05;;;6.22;;
33413;SDS011;60055;41.884;12.534;2023-07-20T04:16:13;21.45;;;5.88;;
33413;SDS011;60055;41.884;12.534;2023-07-20T04:18:38;17.65;;;6.32;;
33413;SDS011;60055;41.884;12.534;2023-07-20T04:21:04;22.20;;;6.10;;
33413;SDS011;60055;41.884;12.534;2023-07-20T04:23:29;21.45;;;6.78;;
33413;SDS011;60055;41.884;12.534;2023-07-20T04:25:54;22.75;;;6.85;;
33413;SDS011;60055;41.884;12.534;2023-07-20T04:28:20;19.15;;;6.72;;
33413;SDS011;60055;41.884;12.534;2023-07-20T04:30:48;22.65;;;6.22;;
33413;SDS011;60055;41.884;12.534;2023-07-20T04:33:14;18.80;;;6.85;;
33413;SDS011;60055;41.884;12.534;2023-07-20T04:35:46;30.13;;;7.18;;
33413;SDS011;60055;41.884;12.534;2023-07-20T04:38:18;27.50;;;7.60;;
33413;SDS011;60055;41.884;12.534;2023-07-20T04:40:45;20.45;;;7.03;;
33413;SDS011;60055;41.884;12.534;2023-07-20T04:43:12;20.17;;;6.30;;
33413;SDS011;60055;41.884;12.534;2023-07-20T04:45:37;17.92;;;5.95;;
33413;SDS011;60055;41.884;12.534;2023-07-20T04:48:06;21.00;;;6.60;;
33413;SDS011;60055;41.884;12.534;2023-07-20T04:50:34;26.17;;;6.40;;
33413;SDS011;60055;41.884;12.534;2023-07-20T04:52:59;23.70;;;6.85;;
33413;SDS011;60055;41.884;12.534;2023-07-20T04:55:26;23.23;;;6.38;;
33413;SDS011;60055;41.884;12.534;2023-07-20T04:57:53;24.02;;;6.75;;
33413;SDS011;60055;41.884;12.534;2023-07-20T05:00:18;19.55;;;6.70;;
33413;SDS011;60055;41.884;12.534;2023-07-20T05:02:44;24.98;;;7.18;;
33413;SDS011;60055;41.884;12.534;2023-07-20T05:05:12;22.55;;;6.90;;
33413;SDS011;60055;41.884;12.534;2023-07-20T05:07:38;22.55;;;7.25;;
33413;SDS011;60055;41.884;12.534;2023-07-20T05:10:03;20.23;;;7.00;;
33413;SDS011;60055;41.884;12.534;2023-07-20T05:12:29;29.58;;;7.68;;
33413;SDS011;60055;41.884;12.534;2023-07-20T05:14:55;21.98;;;7.22;;
33413;SDS011;60055;41.884;12.534;2023-07-20T05:17:20;24.58;;;7.38;;
33413;SDS011;60055;41.884;12.534;2023-07-20T05:19:45;24.17;;;7.22;;
33413;SDS011;60055;41.884;12.534;2023-07-20T05:22:13;23.05;;;7.53;;
33413;SDS011;60055;41.884;12.534;2023-07-20T05:24:39;25.73;;;7.05;;
33413;SDS011;60055;41.884;12.534;2023-07-20T05:27:05;26.30;;;7.60;;
33413;SDS011;60055;41.884;12.534;2023-07-20T05:29:30;24.25;;;7.30;;
33413;SDS011;60055;41.884;12.534;2023-07-20T05:31:56;25.75;;;7.15;;
33413;SDS011;60055;41.884;12.534;2023-07-20T05:34:22;25.13;;;7.40;;
33413;SDS011;60055;41.884;12.534;2023-07-20T05:36:47;19.98;;;7.30;;
33413;SDS011;60055;41.884;12.534;2023-07-20T05:39:13;23.65;;;7.25;;
33413;SDS011;60055;41.884;12.534;2023-07-20T05:41:38;20.02;;;6.68;;
33413;SDS011;60055;41.884;12.534;2023-07-20T05:44:04;25.30;;;7.55;;
33413;SDS011;60055;41.884;12.534;2023-07-20T05:46:29;26.67;;;7.10;;
33413;SDS011;60055;41.884;12.534;2023-07-20T05:48:54;21.55;;;6.65;;
33413;SDS011;60055;41.884;12.534;2023-07-20T05:51:20;20.17;;;6.40;;
33413;SDS011;60055;41.884;12.534;2023-07-20T05:53:45;22.58;;;6.70;;
33413;SDS011;60055;41.884;12.534;2023-07-20T05:56:11;26.73;;;7.20;;
33413;SDS011;60055;41.884;12.534;2023-07-20T05:58:36;24.88;;;6.32;;
33413;SDS011;60055;41.884;12.534;2023-07-20T06:01:03;22.02;;;7.05;;
33413;SDS011;60055;41.884;12.534;2023-07-20T06:03:30;26.08;;;7.15;;
33413;SDS011;60055;41.884;12.534;2023-07-20T06:06:02;32.03;;;7.10;;
33413;SDS011;60055;41.884;12.534;2023-07-20T06:08:29;17.77;;;7.00;;
33413;SDS011;60055;41.884;12.534;2023-07-20T06:10:57;27.80;;;6.93;;
33413;SDS011;60055;41.884;12.534;2023-07-20T06:13:23;22.85;;;6.60;;
33413;SDS011;60055;41.884;12.534;2023-07-20T06:15:49;28.23;;;7.28;;
33413;SDS011;60055;41.884;12.534;2023-07-20T06:18:14;26.20;;;6.78;;
33413;SDS011;60055;41.884;12.534;2023-07-20T06:20:40;19.98;;;6.75;;
33413;SDS011;60055;41.884;12.534;2023-07-20T06:23:05;26.25;;;6.65;;
33413;SDS011;60055;41.884;12.534;2023-07-20T06:25:31;36.75;;;7.70;;
33413;SDS011;60055;41.884;12.534;2023-07-20T06:27:56;22.05;;;6.85;;
33413;SDS011;60055;41.884;12.534;2023-07-20T06:30:22;29.10;;;7.18;;
33413;SDS011;60055;41.884;12.534;2023-07-20T06:32:48;25.38;;;7.00;;
33413;SDS011;60055;41.884;12.534;2023-07-20T06:35:13;21.38;;;6.25;;
33413;SDS011;60055;41.884;12.534;2023-07-20T06:37:39;30.77;;;6.55;;
33413;SDS011;60055;41.884;12.534;2023-07-20T06:40:05;30.75;;;7.50;;
33413;SDS011;60055;41.884;12.534;2023-07-20T06:42:33;26.00;;;7.07;;
33413;SDS011;60055;41.884;12.534;2023-07-20T06:44:59;26.95;;;6.68;;
33413;SDS011;60055;41.884;12.534;2023-07-20T06:47:24;25.27;;;6.85;;
33413;SDS011;60055;41.884;12.534;2023-07-20T06:49:50;21.33;;;6.40;;
33413;SDS011;60055;41.884;12.534;2023-07-20T06:52:15;25.88;;;6.63;;
33413;SDS011;60055;41.884;12.534;2023-07-20T06:54:40;25.63;;;7.25;;
33413;SDS011;60055;41.884;12.534;2023-07-20T06:57:06;28.58;;;7.03;;
33413;SDS011;60055;41.884;12.534;2023-07-20T06:59:31;22.35;;;6.75;;
33413;SDS011;60055;41.884;12.534;2023-07-20T07:01:57;23.27;;;6.70;;
33413;SDS011;60055;41.884;12.534;2023-07-20T07:04:22;23.63;;;7.10;;
33413;SDS011;60055;41.884;12.534;2023-07-20T07:06:47;25.35;;;6.60;;
33413;SDS011;60055;41.884;12.534;2023-07-20T07:09:13;25.60;;;6.93;;
33413;SDS011;60055;41.884;12.534;2023-07-20T07:11:39;24.55;;;6.60;;
33413;SDS011;60055;41.884;12.534;2023-07-20T07:14:04;22.98;;;6.60;;
33413;SDS011;60055;41.884;12.534;2023-07-20T07:16:30;32.38;;;6.90;;
33413;SDS011;60055;41.884;12.534;2023-07-20T07:18:55;23.38;;;6.47;;
33413;SDS011;60055;41.884;12.534;2023-07-20T07:21:20;27.15;;;7.40;;
33413;SDS011;60055;41.884;12.534;2023-07-20T07:23:46;27.17;;;6.90;;
33413;SDS011;60055;41.884;12.534;2023-07-20T07:26:12;27.30;;;7.03;;
33413;SDS011;60055;41.884;12.534;2023-07-20T07:28:37;29.55;;;8.23;;
33413;SDS011;60055;41.884;12.534;2023-07-20T07:31:06;24.88;;;6.50;;
33413;SDS011;60055;41.884;12.534;2023-07-20T07:33:32;27.75;;;7.10;;
33413;SDS011;60055;41.884;12.534;2023-07-20T07:35:58;31.77;;;6.90;;
33413;SDS011;60055;41.884;12.534;2023-07-20T07:38:23;25.92;;;7.10;;
33413;SDS011;60055;41.884;12.534;2023-07-20T07:40:49;26.48;;;6.88;;
33413;SDS011;60055;41.884;12.534;2023-07-20T07:43:14;29.85;;;7.15;;
33413;SDS011;60055;41.884;12.534;2023-07-20T07:45:40;25.85;;;7.35;;
33413;SDS011;60055;41.884;12.534;2023-07-20T07:48:06;26.38;;;7.40;;
33413;SDS011;60055;41.884;12.534;2023-07-20T07:50:32;23.45;;;7.20;;
33413;SDS011;60055;41.884;12.534;2023-07-20T07:52:58;30.05;;;6.80;;
33413;SDS011;60055;41.884;12.534;2023-07-20T07:55:24;26.67;;;6.60;;
33413;SDS011;60055;41.884;12.534;2023-07-20T07:57:51;32.38;;;6.25;;
33413;SDS011;60055;41.884;12.534;2023-07-20T08:00:17;20.60;;;6.30;;
33413;SDS011;60055;41.884;12.534;2023-07-20T08:02:44;30.95;;;6.32;;
33413;SDS011;60055;41.884;12.534;2023-07-20T08:05:11;20.40;;;6.22;;
33413;SDS011;60055;41.884;12.534;2023-07-20T08:07:37;26.17;;;6.25;;
33413;SDS011;60055;41.884;12.534;2023-07-20T08:10:03;24.27;;;6.18;;
33413;SDS011;60055;41.884;12.534;2023-07-20T08:12:29;19.08;;;6.05;;
33413;SDS011;60055;41.884;12.534;2023-07-20T08:14:55;21.60;;;7.10;;
33413;SDS011;60055;41.884;12.534;2023-07-20T08:17:21;22.10;;;6.75;;
33413;SDS011;60055;41.884;12.534;2023-07-20T08:19:46;21.00;;;6.93;;
33413;SDS011;60055;41.884;12.534;2023-07-20T08:22:11;16.95;;;4.90;;
33413;SDS011;60055;41.884;12.534;2023-07-20T08:24:40;18.33;;;5.93;;
33413;SDS011;60055;41.884;12.534;2023-07-20T08:27:06;19.90;;;5.60;;
33413;SDS011;60055;41.884;12.534;2023-07-20T08:29:31;25.27;;;6.25;;
33413;SDS011;60055;41.884;12.534;2023-07-20T08:31:57;27.17;;;6.35;;
33413;SDS011;60055;41.884;12.534;2023-07-20T08:34:22;17.73;;;6.10;;
33413;SDS011;60055;41.884;12.534;2023-07-20T08:36:48;28.33;;;6.03;;
33413;SDS011;60055;41.884;12.534;2023-07-20T08:39:13;21.08;;;6.35;;
33413;SDS011;60055;41.884;12.534;2023-07-20T08:41:38;27.27;;;6.50;;
33413;SDS011;60055;41.884;12.534;2023-07-20T08:44:05;22.13;;;6.40;;
33413;SDS011;60055;41.884;12.534;2023-07-20T08:46:32;21.83;;;6.20;;
33413;SDS011;60055;41.884;12.534;2023-07-20T08:48:59;25.40;;;6.30;;
33413;SDS011;60055;41.884;12.534;2023-07-20T08:51:27;23.48;;;6.28;;
33413;SDS011;60055;41.884;12.534;2023-07-20T08:53:55;30.65;;;6.32;;
33413;SDS011;60055;41.884;12.534;2023-07-20T08:56:20;24.85;;;6.25;;
33413;SDS011;60055;41.884;12.534;2023-07-20T08:58:48;20.15;;;6.15;;
33413;SDS011;60055;41.884;12.534;2023-07-20T09:01:14;24.55;;;6.22;;
33413;SDS011;60055;41.884;12.534;2023-07-20T09:03:40;20.73;;;6.15;;
33413;SDS011;60055;41.884;12.534;2023-07-20T09:06:09;25.45;;;6.65;;
33413;SDS011;60055;41.884;12.534;2023-07-20T09:08:37;25.80;;;6.55;;
33413;SDS011;60055;41.884;12.534;2023-07-20T09:11:04;26.60;;;6.95;;
33413;SDS011;60055;41.884;12.534;2023-07-20T09:13:29;22.55;;;7.18;;
33413;SDS011;60055;41.884;12.534;2023-07-20T09:15:55;19.60;;;6.65;;
33413;SDS011;60055;41.884;12.534;2023-07-20T09:18:30;18.33;;;6.32;;
33413;SDS011;60055;41.884;12.534;2023-07-20T09:21:03;23.70;;;6.55;;
33413;SDS011;60055;41.884;12.534;2023-07-20T09:23:33;21.90;;;6.82;;
33413;SDS011;60055;41.884;12.534;2023-07-20T09:26:01;21.88;;;6.43;;
33413;SDS011;60055;41.884;12.534;2023-07-20T09:28:41;20.13;;;6.32;;
33413;SDS011;60055;41.884;12.534;2023-07-20T09:31:17;24.63;;;6.35;;
33413;SDS011;60055;41.884;12.534;2023-07-20T09:33:44;22.08;;;5.95;;
33413;SDS011;60055;41.884;12.534;2023-07-20T09:36:10;21.70;;;6.60;;
33413;SDS011;60055;41.884;12.534;2023-07-20T09:38:36;23.00;;;5.93;;
33413;SDS011;60055;41.884;12.534;2023-07-20T09:41:04;25.25;;;6.38;;
33413;SDS011;60055;41.884;12.534;2023-07-20T09:43:31;21.58;;;6.10;;
33413;SDS011;60055;41.884;12.534;2023-07-20T09:45:59;38.60;;;7.50;;
33413;SDS011;60055;41.884;12.534;2023-07-20T09:48:25;23.45;;;6.78;;
33413;SDS011;60055;41.884;12.534;2023-07-20T09:50:54;23.10;;;6.30;;
33413;SDS011;60055;41.884;12.534;2023-07-20T09:53:20;23.95;;;6.15;;
33413;SDS011;60055;41.884;12.534;2023-07-20T09:55:46;21.20;;;6.70;;
33413;SDS011;60055;41.884;12.534;2023-07-20T09:58:13;23.80;;;6.43;;
33413;SDS011;60055;41.884;12.534;2023-07-20T10:00:40;20.58;;;6.63;;
33413;SDS011;60055;41.884;12.534;2023-07-20T10:03:08;27.27;;;6.47;;
33413;SDS011;60055;41.884;12.534;2023-07-20T10:05:40;21.45;;;5.93;;
33413;SDS011;60055;41.884;12.534;2023-07-20T10:08:11;21.35;;;6.28;;
33413;SDS011;60055;41.884;12.534;2023-07-20T10:10:38;23.88;;;6.68;;
33413;SDS011;60055;41.884;12.534;2023-07-20T10:13:09;22.38;;;6.93;;
33413;SDS011;60055;41.884;12.534;2023-07-20T10:15:43;22.35;;;5.75;;
33413;SDS011;60055;41.884;12.534;2023-07-20T10:18:14;23.63;;;6.05;;
33413;SDS011;60055;41.884;12.534;2023-07-20T10:20:42;22.17;;;6.20;;
33413;SDS011;60055;41.884;12.534;2023-07-20T10:23:09;20.90;;;6.70;;
33413;SDS011;60055;41.884;12.534;2023-07-20T10:25:36;22.70;;;5.38;;
33413;SDS011;60055;41.884;12.534;2023-07-20T10:28:05;20.17;;;6.07;;
33413;SDS011;60055;41.884;12.534;2023-07-20T10:30:31;24.00;;;6.30;;
33413;SDS011;60055;41.884;12.534;2023-07-20T10:32:59;18.52;;;5.50;;
33413;SDS011;60055;41.884;12.534;2023-07-20T10:35:27;25.35;;;6.20;;
33413;SDS011;60055;41.884;12.534;2023-07-20T10:38:02;21.77;;;5.88;;
33413;SDS011;60055;41.884;12.534;2023-07-20T10:43:01;25.33;;;6.15;;
33413;SDS011;60055;41.884;12.534;2023-07-20T10:48:19;19.42;;;6.00;;
33413;SDS011;60055;41.884;12.534;2023-07-20T10:50:45;20.63;;;5.90;;
33413;SDS011;60055;41.884;12.534;2023-07-20T10:55:40;21.58;;;6.03;;
33413;SDS011;60055;41.884;12.534;2023-07-20T10:58:08;21.98;;;6.05;;
33413;SDS011;60055;41.884;12.534;2023-07-20T11:00:35;18.95;;;6.13;;
33413;SDS011;60055;41.884;12.534;2023-07-20T11:03:01;20.35;;;5.93;;
33413;SDS011;60055;41.884;12.534;2023-07-20T11:05:33;17.67;;;5.45;;
33413;SDS011;60055;41.884;12.534;2023-07-20T11:08:00;19.25;;;5.78;;
33413;SDS011;60055;41.884;12.534;2023-07-20T11:10:28;18.77;;;5.93;;
33413;SDS011;60055;41.884;12.534;2023-07-20T11:15:47;23.20;;;6.32;;
33413;SDS011;60055;41.884;12.534;2023-07-20T11:18:26;17.43;;;6.40;;
33413;SDS011;60055;41.884;12.534;2023-07-20T11:20:52;17.55;;;6.68;;
33413;SDS011;60055;41.884;12.534;2023-07-20T11:23:21;23.15;;;6.50;;
33413;SDS011;60055;41.884;12.534;2023-07-20T11:25:49;27.90;;;7.15;;
33413;SDS011;60055;41.884;12.534;2023-07-20T11:28:15;23.65;;;6.75;;
33413;SDS011;60055;41.884;12.534;2023-07-20T11:30:40;15.38;;;6.75;;
33413;SDS011;60055;41.884;12.534;2023-07-20T11:33:08;24.00;;;7.18;;
33413;SDS011;60055;41.884;12.534;2023-07-20T11:35:43;21.52;;;6.63;;
33413;SDS011;60055;41.884;12.534;2023-07-20T11:38:15;26.05;;;7.20;;
33413;SDS011;60055;41.884;12.534;2023-07-20T11:40:44;19.58;;;6.72;;
33413;SDS011;60055;41.884;12.534;2023-07-20T11:43:11;27.73;;;7.10;;
33413;SDS011;60055;41.884;12.534;2023-07-20T11:45:38;17.40;;;6.72;;
33413;SDS011;60055;41.884;12.534;2023-07-20T11:48:03;24.23;;;6.95;;
33413;SDS011;60055;41.884;12.534;2023-07-20T11:50:30;20.73;;;6.80;;
33413;SDS011;60055;41.884;12.534;2023-07-20T11:52:55;23.65;;;7.50;;
33413;SDS011;60055;41.884;12.534;2023-07-20T11:55:21;20.23;;;7.15;;
33413;SDS011;60055;41.884;12.534;2023-07-20T11:58:06;19.92;;;7.00;;
33413;SDS011;60055;41.884;12.534;2023-07-20T12:00:32;23.23;;;7.10;;
33413;SDS011;60055;41.884;12.534;2023-07-20T12:02:59;22.75;;;7.15;;
33413;SDS011;60055;41.884;12.534;2023-07-20T12:05:25;20.80;;;7.15;;
33413;SDS011;60055;41.884;12.534;2023-07-20T12:07:54;23.63;;;7.20;;
33413;SDS011;60055;41.884;12.534;2023-07-20T12:10:24;18.48;;;6.78;;
33413;SDS011;60055;41.884;12.534;2023-07-20T12:12:51;19.10;;;6.60;;
33413;SDS011;60055;41.884;12.534;2023-07-20T12:17:45;16.77;;;6.68;;
33413;SDS011;60055;41.884;12.534;2023-07-20T12:20:12;21.05;;;6.60;;
33413;SDS011;60055;41.884;12.534;2023-07-20T12:22:40;21.20;;;6.47;;
33413;SDS011;60055;41.884;12.534;2023-07-20T12:25:08;18.83;;;6.63;;
33413;SDS011;60055;41.884;12.534;2023-07-20T12:27:37;20.35;;;6.95;;
33413;SDS011;60055;41.884;12.534;2023-07-20T12:30:06;23.60;;;7.13;;
33413;SDS011;60055;41.884;12.534;2023-07-20T12:32:33;19.75;;;6.85;;
33413;SDS011;60055;41.884;12.534;2023-07-20T12:34:58;22.77;;;6.13;;
33413;SDS011;60055;41.884;12.534;2023-07-20T12:37:25;18.08;;;7.13;;
33413;SDS011;60055;41.884;12.534;2023-07-20T12:39:51;17.27;;;7.35;;
33413;SDS011;60055;41.884;12.534;2023-07-20T12:42:17;20.52;;;7.00;;
33413;SDS011;60055;41.884;12.534;2023-07-20T12:44:43;20.65;;;6.45;;
33413;SDS011;60055;41.884;12.534;2023-07-20T12:47:08;19.45;;;6.45;;
33413;SDS011;60055;41.884;12.534;2023-07-20T12:49:34;18.55;;;7.03;;
33413;SDS011;60055;41.884;12.534;2023-07-20T12:51:59;23.08;;;7.35;;
33413;SDS011;60055;41.884;12.534;2023-07-20T12:54:25;18.70;;;6.95;;
33413;SDS011;60055;41.884;12.534;2023-07-20T12:56:50;25.45;;;7.10;;
33413;SDS011;60055;41.884;12.534;2023-07-20T12:59:15;22.50;;;6.43;;
33413;SDS011;60055;41.884;12.534;2023-07-20T13:01:41;19.00;;;6.60;;
33413;SDS011;60055;41.884;12.534;2023-07-20T13:04:07;19.10;;;6.88;;
33413;SDS011;60055;41.884;12.534;2023-07-20T13:06:34;29.00;;;7.25;;
33413;SDS011;60055;41.884;12.534;2023-07-20T13:09:00;19.63;;;6.40;;
33413;SDS011;60055;41.884;12.534;2023-07-20T13:11:25;18.25;;;6.43;;
33413;SDS011;60055;41.884;12.534;2023-07-20T13:13:51;16.45;;;6.57;;
33413;SDS011;60055;41.884;12.534;2023-07-20T13:16:17;21.48;;;7.00;;
33413;SDS011;60055;41.884;12.534;2023-07-20T13:18:42;23.65;;;7.00;;
33413;SDS011;60055;41.884;12.534;2023-07-20T13:21:07;20.17;;;7.25;;
33413;SDS011;60055;41.884;12.534;2023-07-20T13:23:36;18.75;;;7.70;;
33413;SDS011;60055;41.884;12.534;2023-07-20T13:26:02;23.00;;;8.20;;
33413;SDS011;60055;41.884;12.534;2023-07-20T13:28:29;21.25;;;7.13;;
33413;SDS011;60055;41.884;12.534;2023-07-20T13:30:55;23.00;;;7.22;;
33413;SDS011;60055;41.884;12.534;2023-07-20T13:33:20;24.02;;;7.22;;
33413;SDS011;60055;41.884;12.534;2023-07-20T13:35:46;22.67;;;6.50;;
33413;SDS011;60055;41.884;12.534;2023-07-20T13:38:11;20.40;;;6.50;;
33413;SDS011;60055;41.884;12.534;2023-07-20T13:40:37;14.40;;;6.10;;
33413;SDS011;60055;41.884;12.534;2023-07-20T13:43:03;20.35;;;6.80;;
33413;SDS011;60055;41.884;12.534;2023-07-20T13:45:28;20.95;;;6.80;;
33413;SDS011;60055;41.884;12.534;2023-07-20T13:47:53;26.55;;;6.75;;
33413;SDS011;60055;41.884;12.534;2023-07-20T13:50:19;17.95;;;7.10;;
33413;SDS011;60055;41.884;12.534;2023-07-20T13:52:44;19.50;;;6.80;;
33413;SDS011;60055;41.884;12.534;2023-07-20T13:55:10;24.08;;;6.47;;
33413;SDS011;60055;41.884;12.534;2023-07-20T13:57:35;20.88;;;7.35;;
33413;SDS011;60055;41.884;12.534;2023-07-20T14:00:00;16.58;;;6.50;;
33413;SDS011;60055;41.884;12.534;2023-07-20T14:02:28;19.95;;;7.38;;
33413;SDS011;60055;41.884;12.534;2023-07-20T14:04:54;15.40;;;6.45;;
33413;SDS011;60055;41.884;12.534;2023-07-20T14:07:20;20.25;;;7.00;;
33413;SDS011;60055;41.884;12.534;2023-07-20T14:09:46;23.08;;;7.20;;
33413;SDS011;60055;41.884;12.534;2023-07-20T14:12:12;28.35;;;7.28;;
33413;SDS011;60055;41.884;12.534;2023-07-20T14:14:39;24.05;;;7.20;;
33413;SDS011;60055;41.884;12.534;2023-07-20T14:17:06;19.55;;;6.63;;
33413;SDS011;60055;41.884;12.534;2023-07-20T14:19:32;21.70;;;6.80;;
33413;SDS011;60055;41.884;12.534;2023-07-20T14:21:57;18.80;;;6.00;;
33413;SDS011;60055;41.884;12.534;2023-07-20T14:24:24;22.40;;;6.75;;
33413;SDS011;60055;41.884;12.534;2023-07-20T14:26:50;18.50;;;6.72;;
33413;SDS011;60055;41.884;12.534;2023-07-20T14:29:16;16.55;;;6.47;;
33413;SDS011;60055;41.884;12.534;2023-07-20T14:31:43;24.38;;;7.07;;
33413;SDS011;60055;41.884;12.534;2023-07-20T14:34:08;19.05;;;6.20;;
33413;SDS011;60055;41.884;12.534;2023-07-20T14:36:34;23.95;;;6.57;;
33413;SDS011;60055;41.884;12.534;2023-07-20T14:38:59;21.95;;;6.18;;
33413;SDS011;60055;41.884;12.534;2023-07-20T14:41:25;18.67;;;6.00;;
33413;SDS011;60055;41.884;12.534;2023-07-20T14:43:51;19.90;;;6.88;;